Time;durP1;ratioP1;P1;durP2;ratioP2;P2;SDS_P1;SDS_P2;PMS_P1;PMS_P2;Temp;Humidity;BMP_temperature;BMP_pressure;BME280_temperature;BME280_humidity;BME280_pressure;Samples;Min_cycle;Max_cycle;Signal;HPM_P1;HPM_P2
2020/12/29 00:00:56;;;;;;;6.07;2.45;;;;;;;14.65;42.60;98422.56;5096637;28;20115;-76
2020/12/29 00:03:22;;;;;;;7.55;2.45;;;;;;;14.65;42.60;98421.78;5096757;28;20144;-75
2020/12/29 00:05:48;;;;;;;8.00;2.28;;;;;;;14.62;42.82;98417.06;5096242;28;20020;-75
2020/12/29 00:08:14;;;;;;;6.95;2.10;;;;;;;14.59;42.97;98426.91;5095754;28;20028;-79
2020/12/29 00:10:40;;;;;;;8.55;2.33;;;;;;;14.73;42.60;98434.31;5094920;28;20028;-75
2020/12/29 00:13:07;;;;;;;8.27;2.60;;;;;;;14.72;42.80;98432.75;5096367;28;20028;-75
2020/12/29 00:15:32;;;;;;;5.65;2.95;;;;;;;14.96;42.12;98445.66;5096293;28;20024;-75
2020/12/29 00:17:58;;;;;;;8.35;2.38;;;;;;;14.88;42.49;98448.81;5096257;28;20111;-74
2020/12/29 00:20:24;;;;;;;8.95;2.47;;;;;;;15.10;41.93;98449.53;5095949;28;20031;-78
2020/12/29 00:22:49;;;;;;;11.38;3.58;;;;;;;15.03;42.07;98458.59;5096006;28;20067;-75
2020/12/29 00:25:17;;;;;;;8.35;2.33;;;;;;;15.00;42.27;98473.16;5096013;28;20040;-79
2020/12/29 00:27:42;;;;;;;6.63;2.55;;;;;;;15.02;42.38;98475.50;5095867;28;20028;-85
2020/12/29 00:30:08;;;;;;;7.07;2.38;;;;;;;15.06;42.08;98479.03;5096104;28;20035;-75
2020/12/29 00:32:35;;;;;;;9.00;2.92;;;;;;;14.97;42.58;98476.69;5096128;28;20540;-85
2020/12/29 00:35:00;;;;;;;7.85;2.90;;;;;;;15.08;42.21;98473.91;5096120;28;20037;-75
2020/12/29 00:37:26;;;;;;;9.50;2.70;;;;;;;14.95;42.63;98477.06;5096287;28;20639;-74
2020/12/29 00:39:52;;;;;;;7.47;2.10;;;;;;;14.97;42.54;98482.19;5096199;28;20086;-79
2020/12/29 00:42:17;;;;;;;13.27;3.25;;;;;;;14.96;42.49;98486.91;5095987;28;20028;-75
2020/12/29 00:44:43;;;;;;;9.35;2.75;;;;;;;15.00;42.46;98484.16;5095295;28;20020;-85
2020/12/29 00:47:08;;;;;;;8.80;2.22;;;;;;;15.05;42.39;98488.47;5095726;28;20446;-75
2020/12/29 00:49:37;;;;;;;7.25;2.70;;;;;;;15.08;42.11;98493.16;5095709;28;20032;-85
2020/12/29 00:52:03;;;;;;;7.97;2.38;;;;;;;15.06;42.06;98493.56;5095943;28;20035;-76
2020/12/29 00:54:31;;;;;;;8.45;2.70;;;;;;;15.09;42.06;98486.47;5095600;28;20104;-80
2020/12/29 00:56:58;;;;;;;7.00;2.08;;;;;;;15.23;41.71;98491.94;5095457;28;20043;-75
2020/12/29 00:59:24;;;;;;;7.07;2.30;;;;;;;15.08;42.12;98496.69;5095698;28;20024;-85
2020/12/29 01:01:57;;;;;;;5.38;2.40;;;;;;;15.01;41.95;98496.72;5095655;28;20378;-75
2020/12/29 01:04:26;;;;;;;7.68;2.00;;;;;;;14.91;42.27;98508.53;5095755;28;20115;-85
2020/12/29 01:06:52;;;;;;;8.52;2.83;;;;;;;14.97;42.14;98493.97;5095644;28;20035;-84
2020/12/29 01:09:18;;;;;;;7.32;2.47;;;;;;;14.91;41.99;98509.31;5095454;28;20029;-75
2020/12/29 01:11:44;;;;;;;5.00;1.40;;;;;;;15.03;41.61;98505.34;5095076;28;20024;-77
2020/12/29 01:14:10;;;;;;;4.53;1.48;;;;;;;14.69;42.20;98514.03;5095060;28;20034;-74
2020/12/29 01:16:35;;;;;;;2.67;1.42;;;;;;;14.71;41.64;98519.16;5094896;28;20039;-76
2020/12/29 01:19:01;;;;;;;2.38;1.05;;;;;;;14.52;42.00;98520.34;5095350;28;20509;-84
2020/12/29 01:21:27;;;;;;;4.75;1.45;;;;;;;14.83;41.25;98527.00;5095279;28;20047;-75
2020/12/29 01:23:53;;;;;;;4.13;1.50;;;;;;;14.70;41.25;98542.31;5095147;28;20106;-85
2020/12/29 01:26:25;;;;;;;6.80;1.77;;;;;;;14.61;41.62;98539.19;5094762;28;20032;-74
2020/12/29 01:28:52;;;;;;;4.65;1.35;;;;;;;14.31;42.23;98562.28;5095120;28;20055;-76
2020/12/29 01:31:30;;;;;;;4.03;1.38;;;;;;;14.28;42.34;98565.84;5093342;28;20055;-75
2020/12/29 01:33:59;;;;;;;2.13;1.05;;;;;;;13.97;42.72;98577.50;5094804;28;20098;-75
2020/12/29 01:36:26;;;;;;;2.88;0.90;;;;;;;14.00;42.58;98576.75;5094643;28;20496;-75
2020/12/29 01:38:52;;;;;;;3.25;1.20;;;;;;;14.07;42.69;98572.06;5094619;28;20031;-75
2020/12/29 01:41:22;;;;;;;3.95;1.60;;;;;;;14.50;41.47;98587.84;5094540;28;20024;-75
2020/12/29 01:43:48;;;;;;;4.20;1.20;;;;;;;14.19;42.35;98581.09;5094481;28;20107;-75
2020/12/29 01:46:14;;;;;;;4.43;1.40;;;;;;;14.30;41.92;98590.94;5094376;28;20028;-84
2020/12/29 01:48:40;;;;;;;6.10;1.45;;;;;;;14.48;41.38;98584.72;5093425;28;20104;-74
2020/12/29 01:51:07;;;;;;;3.38;1.38;;;;;;;14.18;41.98;98599.53;5094608;28;20028;-75
2020/12/29 01:53:33;;;;;;;5.30;1.52;;;;;;;14.27;41.87;98594.44;5094351;28;20470;-84
2020/12/29 01:55:59;;;;;;;4.88;1.58;;;;;;;14.09;42.07;98596.38;5093597;28;20027;-75
2020/12/29 01:58:25;;;;;;;2.00;1.25;;;;;;;13.94;42.51;98603.78;5094178;28;20020;-79
2020/12/29 02:00:50;;;;;;;4.35;1.52;;;;;;;14.04;42.02;98610.47;5094176;28;20031;-74
2020/12/29 02:03:16;;;;;;;3.38;2.00;;;;;;;13.97;42.35;98618.69;5094364;28;20020;-75
2020/12/29 02:05:47;;;;;;;2.45;1.38;;;;;;;13.67;42.84;98622.47;5094442;28;20475;-75
2020/12/29 02:08:14;;;;;;;7.53;1.95;;;;;;;13.99;42.25;98622.63;5094281;28;20474;-79
2020/12/29 02:10:41;;;;;;;2.80;2.47;;;;;;;13.75;43.10;98626.84;5094025;28;20020;-74
2020/12/29 02:13:07;;;;;;;4.20;1.77;;;;;;;14.11;41.74;98641.50;5092639;28;20434;-75
2020/12/29 02:15:32;;;;;;;5.32;1.63;;;;;;;14.00;41.82;98643.44;5093874;28;20113;-75
2020/12/29 02:17:58;;;;;;;3.70;1.63;;;;;;;13.84;42.28;98657.47;5093991;28;20032;-85
2020/12/29 02:20:24;;;;;;;4.63;2.13;;;;;;;13.85;42.28;98661.81;5094034;28;20020;-75
2020/12/29 02:22:49;;;;;;;2.70;1.52;;;;;;;14.04;41.96;98665.41;5093777;28;20024;-83
2020/12/29 02:25:17;;;;;;;3.47;1.60;;;;;;;13.50;43.13;98672.56;5092588;28;20111;-77
2020/12/29 02:27:46;;;;;;;6.68;1.85;;;;;;;13.81;42.36;98674.69;5093662;28;20027;-84
2020/12/29 02:30:12;;;;;;;4.20;1.52;;;;;;;13.67;42.81;98676.59;5093886;28;20059;-83
2020/12/29 02:32:38;;;;;;;5.55;1.80;;;;;;;13.87;42.13;98669.63;5093302;28;20048;-74
2020/12/29 02:35:06;;;;;;;4.72;1.75;;;;;;;13.87;42.23;98677.88;5093562;28;20031;-85
2020/12/29 02:37:31;;;;;;;3.72;2.20;;;;;;;14.06;41.49;98674.06;5093917;28;20024;-83
2020/12/29 02:39:57;;;;;;;4.53;1.60;;;;;;;14.10;41.51;98681.13;5093666;28;20024;-75
2020/12/29 02:42:22;;;;;;;4.03;2.08;;;;;;;14.07;41.41;98684.66;5093339;28;20028;-84
2020/12/29 02:44:48;;;;;;;3.05;1.80;;;;;;;14.11;41.12;98693.66;5093462;28;20103;-74
2020/12/29 02:47:14;;;;;;;3.20;1.77;;;;;;;14.08;41.20;98697.19;5093667;28;20103;-76
2020/12/29 02:49:39;;;;;;;4.40;1.77;;;;;;;14.00;41.34;98703.06;5093577;28;20088;-76
2020/12/29 02:52:06;;;;;;;3.22;2.00;;;;;;;13.79;41.71;98700.97;5092130;28;20123;-78
2020/12/29 02:54:32;;;;;;;2.83;1.40;;;;;;;13.77;41.64;98697.84;5093701;28;20428;-75
2020/12/29 02:56:58;;;;;;;3.22;1.80;;;;;;;13.44;42.46;98707.78;5091766;28;20045;-74
2020/12/29 02:59:25;;;;;;;5.05;1.85;;;;;;;13.62;42.09;98705.19;5091626;28;20024;-74
2020/12/29 03:01:51;;;;;;;2.35;1.60;;;;;;;13.72;41.56;98720.94;5092666;28;20024;-74
2020/12/29 03:04:17;;;;;;;5.75;1.60;;;;;;;13.74;41.53;98718.56;5092563;28;20031;-76
2020/12/29 03:06:43;;;;;;;1.67;1.05;;;;;;;13.83;41.07;98723.75;5091858;28;20028;-75
2020/12/29 03:09:08;;;;;;;4.80;1.02;;;;;;;13.76;41.42;98726.44;5093155;28;20028;-84
2020/12/29 03:11:34;;;;;;;3.00;1.30;;;;;;;13.70;41.44;98734.25;5093038;28;20517;-74
2020/12/29 03:14:03;;;;;;;4.82;1.38;;;;;;;13.64;41.11;98735.78;5093099;28;20025;-75
2020/12/29 03:16:28;;;;;;;5.65;1.92;;;;;;;13.52;41.53;98745.09;5093097;28;20031;-74
2020/12/29 03:18:54;;;;;;;5.85;1.55;;;;;;;13.36;41.61;98738.31;5092932;28;20164;-74
2020/12/29 03:21:22;;;;;;;4.60;1.30;;;;;;;13.29;41.67;98747.25;5092820;28;20032;-74
2020/12/29 03:23:48;;;;;;;3.17;1.27;;;;;;;12.98;42.11;98749.31;5092697;28;20031;-74
2020/12/29 03:26:14;;;;;;;3.40;1.10;;;;;;;13.06;41.88;98755.63;5093114;28;20024;-75
2020/12/29 03:28:39;;;;;;;3.88;1.48;;;;;;;13.31;41.30;98750.44;5092791;28;20028;-74
2020/12/29 03:31:05;;;;;;;1.63;1.00;;;;;;;13.30;41.35;98757.88;5092973;28;20048;-81
2020/12/29 03:33:32;;;;;;;3.25;1.92;;;;;;;13.35;41.06;98755.94;5093151;28;20057;-74
2020/12/29 03:35:59;;;;;;;4.10;1.60;;;;;;;13.24;41.37;98753.09;5091594;28;20071;-74
2020/12/29 03:38:24;;;;;;;7.25;1.45;;;;;;;13.22;41.39;98756.22;5092948;28;20119;-84
2020/12/29 03:40:51;;;;;;;4.18;1.30;;;;;;;13.20;41.39;98766.78;5092525;28;20052;-74
2020/12/29 03:43:17;;;;;;;3.92;1.30;;;;;;;13.21;41.25;98770.31;5092724;28;20381;-75
2020/12/29 03:45:43;;;;;;;2.72;1.20;;;;;;;13.05;41.77;98776.00;5092850;28;20020;-75
2020/12/29 03:48:10;;;;;;;3.83;1.38;;;;;;;13.12;41.52;98778.81;5092901;28;20116;-84
2020/12/29 03:50:37;;;;;;;3.53;1.40;;;;;;;13.11;41.47;98777.25;5091620;28;20455;-74
2020/12/29 03:53:04;;;;;;;5.65;1.90;;;;;;;13.16;41.53;98787.09;5092284;28;20055;-84
2020/12/29 03:55:31;;;;;;;2.28;1.35;;;;;;;13.21;41.03;98793.03;5091509;28;20051;-74
2020/12/29 03:57:57;;;;;;;3.87;1.30;;;;;;;13.14;41.25;98790.19;5092764;28;20024;-75
2020/12/29 04:00:23;;;;;;;5.82;1.70;;;;;;;13.13;41.04;98791.34;5091088;28;20475;-77
2020/12/29 04:02:48;;;;;;;5.33;1.50;;;;;;;13.17;41.00;98794.94;5092864;28;20020;-75
2020/12/29 04:05:16;;;;;;;5.53;1.35;;;;;;;13.04;41.10;98796.38;5092717;28;20387;-85
2020/12/29 04:07:41;;;;;;;3.90;1.30;;;;;;;13.07;41.11;98795.59;5092628;28;20047;-84
2020/12/29 04:10:07;;;;;;;5.60;1.55;;;;;;;13.10;41.10;98800.34;5092533;28;20539;-75
2020/12/29 04:12:33;;;;;;;5.38;2.05;;;;;;;13.00;41.19;98801.81;5092313;28;20094;-75
2020/12/29 04:14:58;;;;;;;3.03;1.50;;;;;;;12.91;41.51;98797.78;5092496;28;20020;-75
2020/12/29 04:17:24;;;;;;;6.85;1.98;;;;;;;13.30;40.83;98800.97;5092578;28;20470;-74
2020/12/29 04:19:50;;;;;;;10.20;1.67;;;;;;;13.53;40.04;98800.78;5095206;28;20035;-84
2020/12/29 04:22:16;;;;;;;4.43;1.92;;;;;;;13.66;39.48;98804.78;5096225;28;20152;-74
2020/12/29 04:24:41;;;;;;;7.13;1.73;;;;;;;13.61;39.87;98807.91;5096301;28;20378;-74
2020/12/29 04:27:07;;;;;;;7.70;2.10;;;;;;;13.75;39.37;98812.69;5096304;28;20028;-76
2020/12/29 04:29:33;;;;;;;3.88;1.42;;;;;;;13.69;39.63;98820.50;5096247;28;20016;-84
2020/12/29 04:31:59;;;;;;;4.88;1.50;;;;;;;13.81;39.33;98822.16;5096261;28;20040;-75
2020/12/29 04:34:25;;;;;;;5.68;1.48;;;;;;;13.66;39.77;98829.47;5096017;28;20474;-74
2020/12/29 04:36:54;;;;;;;7.60;1.70;;;;;;;13.43;40.40;98831.63;5095742;28;20020;-75
2020/12/29 04:39:20;;;;;;;6.40;1.70;;;;;;;13.21;41.06;98833.38;5095834;28;20111;-75
2020/12/29 04:41:51;;;;;;;3.63;1.73;;;;;;;13.25;40.98;98842.44;5096228;28;20038;-79
2020/12/29 04:44:17;;;;;;;3.35;1.48;;;;;;;13.27;41.06;98854.59;5096195;28;20417;-74
2020/12/29 04:46:43;;;;;;;4.63;1.27;;;;;;;13.36;40.90;98845.28;5095612;28;20024;-85
2020/12/29 04:49:08;;;;;;;5.57;1.60;;;;;;;13.52;40.66;98854.06;5095399;28;20020;-74
2020/12/29 04:51:36;;;;;;;6.47;1.77;;;;;;;13.63;40.31;98860.44;5095406;28;20073;-74
2020/12/29 04:54:06;;;;;;;3.70;1.30;;;;;;;13.57;40.49;98864.69;5095737;28;20028;-74
2020/12/29 04:56:32;;;;;;;3.83;1.50;;;;;;;13.71;40.25;98867.56;5095591;28;20032;-74
2020/12/29 04:59:00;;;;;;;8.82;1.50;;;;;;;13.80;39.86;98875.47;5095527;28;20158;-85
2020/12/29 05:01:30;;;;;;;4.05;1.30;;;;;;;13.65;40.33;98871.81;5095523;28;20016;-75
2020/12/29 05:03:55;;;;;;;7.50;1.48;;;;;;;13.56;40.64;98874.09;5095513;28;20106;-74
2020/12/29 05:06:22;;;;;;;3.55;1.58;;;;;;;13.63;40.44;98874.16;5095100;28;20434;-74
2020/12/29 05:08:50;;;;;;;6.87;1.93;;;;;;;13.65;40.43;98882.78;5095100;28;20144;-74
2020/12/29 05:11:17;;;;;;;4.63;2.22;;;;;;;13.62;40.45;98878.06;5095028;28;20056;-75
2020/12/29 05:13:45;;;;;;;4.57;1.45;;;;;;;14.03;39.77;98895.28;5094932;28;20112;-74
2020/12/29 05:16:11;;;;;;;5.95;1.98;;;;;;;14.18;39.53;98901.66;5094661;28;20052;-75
2020/12/29 05:18:36;;;;;;;8.27;2.47;;;;;;;14.33;39.34;98908.03;5095023;28;20077;-75
2020/12/29 05:21:03;;;;;;;4.63;1.60;;;;;;;14.35;39.31;98905.69;5094761;28;20471;-74
2020/12/29 05:23:29;;;;;;;4.30;1.45;;;;;;;14.37;39.36;98909.66;5094607;28;20027;-75
2020/12/29 05:25:55;;;;;;;8.40;1.77;;;;;;;14.36;39.53;98910.03;5094701;28;20032;-82
2020/12/29 05:28:22;;;;;;;5.18;1.92;;;;;;;14.22;39.82;98915.44;5095086;28;20028;-85
2020/12/29 05:31:00;;;;;;;6.80;1.63;;;;;;;14.07;40.03;98925.53;5093499;28;20069;-74
2020/12/29 05:33:29;;;;;;;7.47;1.88;;;;;;;13.79;41.07;98926.84;5093352;28;20390;-74
2020/12/29 05:35:58;;;;;;;7.40;2.33;;;;;;;14.27;40.15;98935.09;5094881;28;20035;-79
2020/12/29 05:38:24;;;;;;;10.35;2.33;;;;;;;14.03;40.51;98935.69;5093751;28;20020;-75
2020/12/29 05:40:51;;;;;;;6.50;2.03;;;;;;;14.39;39.74;98940.28;5094867;28;20103;-78
2020/12/29 05:43:28;;;;;;;5.47;1.60;;;;;;;14.39;39.75;98950.47;5094860;28;20024;-75
2020/12/29 05:45:54;;;;;;;5.07;1.75;;;;;;;14.23;40.41;98947.22;5094644;28;20077;-74
2020/12/29 05:48:20;;;;;;;7.60;2.00;;;;;;;14.37;39.83;98953.63;5094134;28;20028;-74
2020/12/29 05:50:45;;;;;;;7.68;2.40;;;;;;;14.28;40.16;98961.41;5094390;28;20360;-76
2020/12/29 05:53:11;;;;;;;3.90;1.65;;;;;;;14.45;39.71;98970.94;5094204;28;20539;-74
2020/12/29 05:55:37;;;;;;;11.93;2.70;;;;;;;14.52;39.57;98964.75;5093110;28;20024;-75
2020/12/29 05:58:07;;;;;;;5.53;1.60;;;;;;;14.47;39.67;98965.88;5092824;28;20367;-85
2020/12/29 06:00:41;;;;;;;6.72;2.00;;;;;;;14.38;39.71;98982.66;5093976;28;20024;-76
2020/12/29 06:03:08;;;;;;;4.85;1.40;;;;;;;14.49;39.65;98976.47;5092321;28;20047;-75
2020/12/29 06:05:36;;;;;;;8.15;2.80;;;;;;;14.32;40.06;98983.41;5093083;28;20497;-84
2020/12/29 06:08:07;;;;;;;4.07;1.48;;;;;;;14.33;39.95;98976.72;5093619;28;20032;-75
2020/12/29 06:10:35;;;;;;;3.77;1.50;;;;;;;14.14;40.22;98986.78;5093298;28;20035;-75
2020/12/29 06:13:03;;;;;;;3.33;1.20;;;;;;;13.50;41.65;98986.13;5092542;28;20115;-74
2020/12/29 06:15:30;;;;;;;3.28;1.15;;;;;;;13.91;40.79;98988.16;5093719;28;20024;-74
2020/12/29 06:17:58;;;;;;;4.53;1.20;;;;;;;14.13;40.13;98998.13;5093582;28;20020;-75
2020/12/29 06:20:39;;;;;;;8.88;1.70;;;;;;;14.28;39.86;99001.81;5093044;28;20039;-74
2020/12/29 06:23:06;;;;;;;3.83;1.15;;;;;;;14.37;39.74;98999.53;5093406;28;20028;-75
2020/12/29 06:25:34;;;;;;;1.88;0.93;;;;;;;14.11;40.40;99017.75;5093694;28;20039;-74
2020/12/29 06:28:01;;;;;;;5.30;1.38;;;;;;;14.01;40.37;99017.66;5093401;28;20034;-74
2020/12/29 06:30:28;;;;;;;2.30;1.08;;;;;;;14.04;40.31;99025.91;5093310;28;20090;-84
2020/12/29 06:32:55;;;;;;;4.45;1.45;;;;;;;14.23;39.98;99035.91;5093348;28;20558;-74
2020/12/29 06:35:22;;;;;;;6.47;1.38;;;;;;;13.82;40.71;99026.84;5093216;28;20028;-81
2020/12/29 06:38:15;;;;;;;3.65;1.50;;;;;;;14.15;40.23;99024.06;5092018;28;20031;-75
2020/12/29 06:40:42;;;;;;;7.27;2.47;;;;;;;14.18;40.13;99024.47;5084977;28;20047;-74
2020/12/29 06:43:09;;;;;;;5.70;1.70;;;;;;;14.20;40.05;99022.94;5093013;28;20022;-75
2020/12/29 06:45:36;;;;;;;5.40;1.83;;;;;;;14.00;40.37;99019.63;5092967;28;20228;-75
2020/12/29 06:48:20;;;;;;;5.50;1.20;;;;;;;13.98;40.34;99032.13;5093196;28;20024;-74
2020/12/29 06:50:47;;;;;;;2.35;1.48;;;;;;;13.85;40.66;99037.91;5093068;28;20016;-76
2020/12/29 06:53:17;;;;;;;3.72;1.65;;;;;;;13.85;40.43;99057.13;5093279;28;20030;-74
2020/12/29 06:55:52;;;;;;;5.00;2.50;;;;;;;13.87;40.53;99057.53;5093734;28;20027;-85
2020/12/29 06:58:34;;;;;;;7.65;1.90;;;;;;;13.65;41.22;99066.66;5093067;28;20028;-74
2020/12/29 07:01:23;;;;;;;7.68;2.03;;;;;;;13.48;41.06;99070.00;5093427;28;20501;-82
2020/12/29 07:04:08;;;;;;;2.25;1.33;;;;;;;13.51;41.17;99066.50;5093313;28;20024;-75
2020/12/29 07:06:35;;;;;;;7.57;2.10;;;;;;;13.60;40.98;99086.19;5093103;28;20561;-75
2020/12/29 07:09:08;;;;;;;3.27;1.50;;;;;;;13.43;41.29;99093.06;5093300;28;20058;-84
2020/12/29 07:11:35;;;;;;;4.88;1.63;;;;;;;13.64;40.91;99098.03;5093414;28;20024;-74
2020/12/29 07:14:05;;;;;;;2.78;1.17;;;;;;;13.29;41.45;99103.81;5092901;28;20497;-74
2020/12/29 07:16:31;;;;;;;;;;;;;;;13.28;41.53;99118.69;5093622;28;20475;-75
2020/12/29 07:19:10;;;;;;;2.03;0.98;;;;;;;13.36;41.23;99114.91;5093005;28;19912;-83
2020/12/29 07:21:36;;;;;;;4.53;1.30;;;;;;;13.35;41.24;99118.81;5092697;28;20036;-81
2020/12/29 07:24:06;;;;;;;7.47;2.30;;;;;;;13.60;40.54;99122.69;5091922;28;20308;-84
2020/12/29 07:26:40;;;;;;;4.57;1.40;;;;;;;13.44;41.16;99129.50;5092916;28;20490;-74
2020/12/29 07:29:07;;;;;;;5.07;1.83;;;;;;;13.36;41.20;99125.09;5092811;28;20075;-74
2020/12/29 07:31:39;;;;;;;2.22;1.13;;;;;;;13.41;40.99;99135.75;5078826;28;20076;-75
2020/12/29 07:34:10;;;;;;;5.47;1.10;;;;;;;12.66;42.53;99148.25;5080265;28;20024;-82
2020/12/29 07:36:42;;;;;;;4.82;1.33;;;;;;;12.97;41.88;99150.72;5082179;28;20067;-78
2020/12/29 07:39:12;;;;;;;2.53;1.13;;;;;;;12.84;42.15;99151.28;5073525;28;20356;-84
2020/12/29 07:41:38;;;;;;;;;;;;;;;13.12;41.54;99154.50;5073766;28;20099;-84
2020/12/29 07:44:03;;;;;;;4.53;1.38;;;;;;;13.36;40.97;99158.78;5073033;28;19912;-84
2020/12/29 07:46:30;;;;;;;2.27;0.93;;;;;;;13.47;40.59;99154.25;5072769;28;20032;-74
2020/12/29 07:48:56;;;;;;;11.05;7.20;;;;;;;13.29;40.85;99170.44;5072939;28;20028;-75
2020/12/29 07:51:21;;;;;;;4.68;1.95;;;;;;;13.15;41.30;99175.72;5072870;28;20028;-81
2020/12/29 07:53:47;;;;;;;8.70;4.90;;;;;;;13.48;40.47;99172.31;5073576;28;20021;-75
2020/12/29 07:56:13;;;;;;;4.30;2.00;;;;;;;13.19;41.03;99184.75;5076810;28;20036;-84
2020/12/29 07:58:39;;;;;;;6.13;2.13;;;;;;;13.47;40.43;99191.88;5076436;28;20063;-74
2020/12/29 08:01:05;;;;;;;4.65;2.78;;;;;;;13.36;40.59;99186.22;5076754;28;20402;-77
2020/12/29 08:03:30;;;;;;;5.53;3.23;;;;;;;13.47;40.21;99187.19;5076732;28;20024;-75
2020/12/29 08:05:56;;;;;;;9.20;6.80;;;;;;;13.11;40.90;99196.00;5076718;28;20032;-74
2020/12/29 08:08:22;;;;;;;3.55;1.83;;;;;;;12.92;41.45;99205.88;5075073;28;20028;-75
2020/12/29 08:10:47;;;;;;;6.00;2.10;;;;;;;12.99;41.29;99200.50;5076147;28;20068;-74
2020/12/29 08:13:17;;;;;;;4.37;2.80;;;;;;;13.10;40.93;99216.34;5075664;28;20029;-74
2020/12/29 08:15:44;;;;;;;2.65;1.77;;;;;;;12.45;42.15;99226.16;5074352;28;20024;-73
2020/12/29 08:18:11;;;;;;;5.30;1.93;;;;;;;12.56;41.79;99231.06;5076192;28;20029;-82
2020/12/29 08:20:47;;;;;;;6.70;3.47;;;;;;;12.47;41.94;99240.28;5074844;28;20028;-74
2020/12/29 08:23:17;;;;;;;5.83;2.60;;;;;;;12.85;41.38;99249.63;5074326;28;20028;-82
2020/12/29 08:25:54;;;;;;;3.88;2.53;;;;;;;12.85;40.90;99249.63;5075971;28;20025;-74
2020/12/29 08:28:25;;;;;;;2.78;2.42;;;;;;;12.87;40.82;99252.00;5076032;28;20111;-74
2020/12/29 08:30:51;;;;;;;6.47;5.07;;;;;;;12.96;40.78;99267.03;5074477;28;20059;-85
2020/12/29 08:33:24;;;;;;;4.63;2.00;;;;;;;12.95;40.72;99264.66;5075900;28;20027;-74
2020/12/29 08:35:51;;;;;;;4.28;2.95;;;;;;;12.98;40.59;99272.16;5074464;28;20461;-74
2020/12/29 08:38:42;;;;;;;8.70;3.83;;;;;;;12.74;41.06;99278.75;5074123;28;20115;-83
2020/12/29 08:41:07;;;;;;;7.13;3.07;;;;;;;12.97;40.60;99284.28;5075426;28;20028;-75
2020/12/29 08:43:53;;;;;;;12.27;9.73;;;;;;;13.24;39.82;99285.97;5075275;28;20028;-75
2020/12/29 08:46:21;;;;;;;7.03;2.83;;;;;;;13.26;39.63;99291.88;5075078;28;20115;-74
2020/12/29 08:48:53;;;;;;;9.95;7.05;;;;;;;13.29;39.76;99310.34;5073781;28;20036;-74
2020/12/29 08:51:27;;;;;;;6.47;1.85;;;;;;;13.07;39.95;99319.31;5073793;28;20039;-74
2020/12/29 08:53:54;;;;;;;7.33;1.63;;;;;;;13.27;39.62;99318.16;5074995;28;20078;-74
2020/12/29 08:56:26;;;;;;;5.33;1.77;;;;;;;13.08;40.06;99318.19;5070177;28;20098;-75
2020/12/29 08:58:55;;;;;;;7.30;1.40;;;;;;;13.13;39.95;99320.59;5074354;28;20544;-76
2020/12/29 09:01:35;;;;;;;4.15;1.38;;;;;;;12.70;40.76;99324.50;5081791;28;20078;-80
2020/12/29 09:04:28;;;;;;;2.55;1.13;;;;;;;12.76;40.86;99337.53;5085203;28;20034;-76
2020/12/29 09:06:57;;;;;;;4.90;2.95;;;;;;;12.89;40.46;99332.69;5083305;28;20063;-76
2020/12/29 09:09:23;;;;;;;60.30;48.60;;;;;;;13.03;40.04;99343.16;5086220;28;20023;-80
2020/12/29 09:11:49;;;;;;;47.87;38.17;;;;;;;13.10;40.22;99351.50;5084550;28;20028;-79
2020/12/29 09:14:24;;;;;;;21.43;18.20;;;;;;;13.14;39.93;99346.06;5082328;28;20106;-76
2020/12/29 09:17:04;;;;;;;23.63;19.63;;;;;;;13.18;39.76;99353.22;5084616;28;20025;-80
2020/12/29 09:19:30;;;;;;;10.50;7.73;;;;;;;13.28;39.65;99354.59;5082945;28;20032;-80
2020/12/29 09:22:09;;;;;;;7.55;3.15;;;;;;;13.07;40.12;99357.69;5084973;28;20020;-78
2020/12/29 09:24:36;;;;;;;25.13;22.55;;;;;;;13.29;39.60;99367.16;5082672;28;20024;-78
2020/12/29 09:27:03;;;;;;;56.15;43.00;;;;;;;13.37;39.37;99379.84;5084913;28;20426;-75
2020/12/29 09:29:32;;;;;;;5.82;3.38;;;;;;;13.58;38.67;99382.97;5079669;28;20099;-83
2020/12/29 09:31:58;;;;;;;6.07;3.95;;;;;;;13.51;39.30;99393.03;5084451;28;20039;-76
2020/12/29 09:34:24;;;;;;;7.25;4.65;;;;;;;13.55;39.14;99405.66;5082387;28;20025;-80
2020/12/29 09:36:50;;;;;;;10.17;2.90;;;;;;;13.55;39.29;99413.09;5083872;28;20013;-74
2020/12/29 09:39:15;;;;;;;7.13;3.27;;;;;;;13.60;38.90;99410.03;5085055;28;20528;-74
2020/12/29 09:41:41;;;;;;;7.83;3.37;;;;;;;13.65;38.98;99422.69;5082086;28;20387;-75
2020/12/29 09:44:07;;;;;;;9.97;5.50;;;;;;;13.66;39.12;99427.00;5083818;28;20439;-75
2020/12/29 09:46:37;;;;;;;3.70;1.55;;;;;;;13.74;38.57;99432.25;5083966;28;20031;-81
2020/12/29 09:49:03;;;;;;;8.10;1.73;;;;;;;13.74;38.72;99431.47;5085109;28;20113;-78
2020/12/29 09:51:30;;;;;;;5.17;2.40;;;;;;;13.72;39.01;99437.31;5085233;28;20497;-73
2020/12/29 09:53:55;;;;;;;3.55;1.33;;;;;;;13.91;38.62;99441.97;5091079;28;20028;-76
2020/12/29 09:56:22;;;;;;;9.60;2.00;;;;;;;13.83;38.68;99454.00;5076709;28;20038;-75
2020/12/29 09:58:48;;;;;;;5.03;1.60;;;;;;;13.58;39.04;99464.50;5087845;28;20027;-75
2020/12/29 10:01:14;;;;;;;6.03;1.38;;;;;;;13.96;38.43;99449.91;5083336;28;20020;-74
2020/12/29 10:03:40;;;;;;;32.78;21.67;;;;;;;13.93;38.79;99458.88;5080431;28;20029;-75
2020/12/29 10:06:05;;;;;;;10.00;8.32;;;;;;;13.90;38.80;99445.84;5082922;28;20111;-75
2020/12/29 10:08:31;;;;;;;8.38;3.75;;;;;;;13.87;38.86;99477.59;5086601;28;20055;-81
2020/12/29 10:10:57;;;;;;;5.95;2.10;;;;;;;13.88;38.86;99478.38;5084860;28;20013;-75
2020/12/29 10:13:23;;;;;;;7.40;1.73;;;;;;;13.99;38.68;99484.09;5073432;28;20029;-75
2020/12/29 10:15:49;;;;;;;12.20;2.53;;;;;;;14.25;38.29;99494.31;5080638;28;20020;-75
2020/12/29 10:18:15;;;;;;;5.05;2.08;;;;;;;14.04;38.79;99498.28;5078398;28;20037;-74
2020/12/29 10:20:40;;;;;;;4.78;1.45;;;;;;;14.09;38.52;99508.19;5087202;28;20031;-82
2020/12/29 10:23:06;;;;;;;5.65;2.05;;;;;;;14.04;38.92;99516.72;5088531;28;20055;-75
2020/12/29 10:25:32;;;;;;;8.80;2.35;;;;;;;14.28;38.42;99512.81;5073050;28;20028;-75
2020/12/29 10:27:57;;;;;;;6.38;2.00;;;;;;;14.35;38.11;99521.97;5075578;28;20060;-75
2020/12/29 10:30:23;;;;;;;3.17;1.02;;;;;;;14.58;37.86;99526.66;5080774;28;20107;-75
2020/12/29 10:32:49;;;;;;;5.97;1.70;;;;;;;14.64;37.88;99530.69;5081027;28;20040;-83
2020/12/29 10:35:14;;;;;;;11.07;1.90;;;;;;;14.57;38.17;99533.34;5082891;28;20037;-75
2020/12/29 10:37:40;;;;;;;8.23;1.85;;;;;;;14.35;38.46;99537.66;5082310;28;20020;-75
2020/12/29 10:40:06;;;;;;;5.25;1.88;;;;;;;14.47;38.39;99525.72;5074785;28;20032;-76
2020/12/29 10:42:31;;;;;;;7.22;1.70;;;;;;;14.57;38.14;99527.84;5072958;28;20388;-75
2020/12/29 10:44:57;;;;;;;5.47;2.03;;;;;;;14.51;38.34;99532.06;5074501;28;20027;-81
2020/12/29 10:47:23;;;;;;;4.30;1.77;;;;;;;14.47;38.48;99539.47;5075999;28;20036;-79
2020/12/29 10:49:48;;;;;;;3.90;1.60;;;;;;;14.60;38.43;99543.59;5061689;28;20029;-81
2020/12/29 10:52:14;;;;;;;6.55;1.77;;;;;;;14.53;38.70;99538.00;5063195;28;20058;-80
2020/12/29 10:54:39;;;;;;;7.25;1.52;;;;;;;14.72;37.91;99543.38;5063039;28;20381;-75
2020/12/29 10:57:05;;;;;;;7.38;1.98;;;;;;;14.65;38.15;99551.53;5072783;28;20032;-75
2020/12/29 10:59:30;;;;;;;4.65;1.63;;;;;;;14.63;38.16;99543.66;5072813;28;20052;-78
2020/12/29 11:01:56;;;;;;;18.17;10.75;;;;;;;14.93;37.61;99546.47;5066754;28;20052;-75
2020/12/29 11:04:26;;;;;;;5.82;1.92;;;;;;;14.56;38.49;99556.50;5065739;28;20029;-80
2020/12/29 11:06:52;;;;;;;5.00;1.88;;;;;;;14.75;38.10;99563.88;5055513;28;20028;-83
2020/12/29 11:09:18;;;;;;;7.65;4.78;;;;;;;14.87;38.03;99564.44;5070350;28;20028;-81
2020/12/29 11:11:44;;;;;;;4.80;2.13;;;;;;;15.04;37.70;99562.31;5072840;28;20044;-76
2020/12/29 11:14:10;;;;;;;9.45;4.65;;;;;;;14.93;38.11;99576.72;5058366;28;20253;-81
2020/12/29 11:16:35;;;;;;;7.40;2.78;;;;;;;14.63;38.71;99579.38;5064588;28;20115;-81
2020/12/29 11:19:01;;;;;;;8.98;1.70;;;;;;;14.81;38.35;99582.44;5085159;28;20028;-81
2020/12/29 11:21:26;;;;;;;4.75;1.77;;;;;;;14.37;39.13;99580.13;5088012;28;20032;-81
2020/12/29 11:23:52;;;;;;;5.70;1.70;;;;;;;14.98;38.07;99592.91;5073400;28;20039;-80
2020/12/29 11:26:22;;;;;;;6.05;4.50;;;;;;;15.10;37.64;99588.34;5072234;28;20119;-80
2020/12/29 11:28:48;;;;;;;5.47;2.13;;;;;;;15.14;37.82;99601.00;5075558;28;20056;-77
2020/12/29 11:31:14;;;;;;;6.30;2.13;;;;;;;14.93;38.28;99593.22;5076345;28;20040;-80
2020/12/29 11:33:40;;;;;;;7.30;1.77;;;;;;;15.32;37.51;99589.44;5076637;28;20032;-79
2020/12/29 11:36:06;;;;;;;10.38;3.05;;;;;;;15.12;37.86;99594.28;5075401;28;20387;-74